createdAt,value
2022-07-25T00:01:54.664Z,6.15
2022-07-25T00:04:27.156Z,5.88
2022-07-25T00:06:57.504Z,6.15
2022-07-25T00:09:27.727Z,5.28
2022-07-25T00:11:57.962Z,5.93
2022-07-25T00:14:30.773Z,5.80
2022-07-25T00:17:01.062Z,5.70
2022-07-25T00:19:31.259Z,6.47
2022-07-25T00:22:01.671Z,5.80
2022-07-25T00:24:31.980Z,5.88
2022-07-25T00:27:02.972Z,5.90
2022-07-25T00:29:36.120Z,5.80
2022-07-25T00:32:06.622Z,6.35
2022-07-25T00:34:37.083Z,6.13
2022-07-25T00:37:08.784Z,6.25
2022-07-25T00:39:39.232Z,6.38
2022-07-25T00:42:10.084Z,6.38
2022-07-25T00:44:43.178Z,5.75
2022-07-25T00:47:13.815Z,6.47
2022-07-25T00:49:44.193Z,6.00
2022-07-25T00:52:14.613Z,6.40
2022-07-25T00:54:45.291Z,6.10
2022-07-25T00:57:15.642Z,6.07
2022-07-25T00:59:48.697Z,6.22
2022-07-25T01:02:18.997Z,6.40
2022-07-25T01:04:49.276Z,5.72
2022-07-25T01:07:20.400Z,5.97
2022-07-25T01:09:50.774Z,6.18
2022-07-25T01:12:21.542Z,6.03
2022-07-25T01:14:54.360Z,6.18
2022-07-25T01:17:24.560Z,5.80
2022-07-25T01:19:54.730Z,6.15
2022-07-25T01:22:27.620Z,6.13
2022-07-25T01:24:57.782Z,6.30
2022-07-25T01:27:28.020Z,5.93
2022-07-25T01:38:44.354Z,6.18
2022-07-25T01:41:14.619Z,5.88
2022-07-25T01:43:52.900Z,6.30
2022-07-25T01:46:23.247Z,6.20
2022-07-25T01:48:53.724Z,6.28
2022-07-25T01:51:26.490Z,5.80
2022-07-25T01:53:59.851Z,6.10
2022-07-25T01:56:31.810Z,6.07
2022-07-25T01:59:02.479Z,6.25
2022-07-25T02:01:32.767Z,6.15
2022-07-25T02:04:03.342Z,6.72
2022-07-25T02:06:34.473Z,6.72
2022-07-25T02:09:08.042Z,6.20
2022-07-25T02:11:38.282Z,6.47
2022-07-25T02:14:08.860Z,6.78
2022-07-25T02:16:39.446Z,6.20
2022-07-25T02:19:09.879Z,6.57
2022-07-25T02:21:40.216Z,6.25
2022-07-25T02:24:13.278Z,5.70
2022-07-25T02:26:43.571Z,6.10
2022-07-25T02:29:13.790Z,6.30
2022-07-25T02:31:44.016Z,5.53
2022-07-25T02:34:15.275Z,6.40
2022-07-25T02:36:45.791Z,6.15
2022-07-25T02:39:18.815Z,6.72
2022-07-25T02:41:49.029Z,6.40
2022-07-25T02:44:19.324Z,6.60
2022-07-25T02:46:49.474Z,6.55
2022-07-25T02:49:19.842Z,7.10
2022-07-25T02:51:50.164Z,6.85
2022-07-25T02:54:23.083Z,7.00
2022-07-25T02:56:53.249Z,6.57
2022-07-25T02:59:23.600Z,7.32
2022-07-25T03:01:53.941Z,7.15
2022-07-25T03:04:25.683Z,6.75
2022-07-25T03:06:56.018Z,7.05
2022-07-25T03:09:28.950Z,6.30
2022-07-25T03:11:59.280Z,6.05
2022-07-25T03:14:29.600Z,6.53
2022-07-25T03:16:59.843Z,6.72
2022-07-25T03:19:30.372Z,6.25
2022-07-25T03:22:00.532Z,6.38
2022-07-25T03:24:33.373Z,6.40
2022-07-25T03:27:03.632Z,6.45
2022-07-25T03:29:33.882Z,6.13
2022-07-25T03:32:04.642Z,5.63
2022-07-25T03:34:35.099Z,6.30
2022-07-25T03:37:05.786Z,5.90
2022-07-25T03:39:38.811Z,6.45
2022-07-25T03:42:09.214Z,6.63
2022-07-25T03:44:39.829Z,6.15
2022-07-25T03:47:10.174Z,6.75
2022-07-25T03:49:50.636Z,6.60
2022-07-25T03:52:20.873Z,6.10
2022-07-25T03:54:53.809Z,6.53
2022-07-25T03:57:23.982Z,6.20
2022-07-25T03:59:54.308Z,6.18
2022-07-25T04:02:24.593Z,6.20
2022-07-25T04:04:55.235Z,6.40
2022-07-25T04:07:25.449Z,6.18
2022-07-25T04:09:58.392Z,6.13
2022-07-25T04:12:28.584Z,5.97
2022-07-25T04:14:58.905Z,5.93
2022-07-25T04:17:29.225Z,6.18
2022-07-25T04:19:59.534Z,6.32
2022-07-25T04:22:29.773Z,5.78
2022-07-25T04:25:02.885Z,6.13
2022-07-25T04:27:33.312Z,6.25
2022-07-25T04:30:03.998Z,6.70
2022-07-25T04:32:34.172Z,6.00
2022-07-25T04:35:04.470Z,6.38
2022-07-25T04:37:36.121Z,6.18
2022-07-25T04:40:11.456Z,5.80
2022-07-25T04:42:41.663Z,6.15
2022-07-25T04:45:13.818Z,6.60
2022-07-25T04:47:44.015Z,6.20
2022-07-25T04:50:14.398Z,6.50
2022-07-25T04:52:44.869Z,6.55
2022-07-25T04:55:17.753Z,6.15
2022-07-25T04:57:47.967Z,6.78
2022-07-25T05:00:19.690Z,6.22
2022-07-25T05:02:49.906Z,6.47
2022-07-25T05:05:21.528Z,6.32
2022-07-25T05:07:53.079Z,6.05
2022-07-25T05:10:26.026Z,6.28
2022-07-25T05:12:56.395Z,5.72
2022-07-25T05:15:26.927Z,5.60
2022-07-25T05:17:57.109Z,6.10
2022-07-25T05:20:27.811Z,5.80
2022-07-25T05:22:57.975Z,5.63
2022-07-25T05:25:30.887Z,6.97
2022-07-25T05:28:02.069Z,6.25
2022-07-25T05:30:35.382Z,5.82
2022-07-25T05:33:09.603Z,6.20
2022-07-25T05:35:40.166Z,5.72
2022-07-25T05:38:10.292Z,6.05
2022-07-25T05:40:43.273Z,5.97
2022-07-25T05:43:13.722Z,5.25
2022-07-25T05:45:44.272Z,5.80
2022-07-25T05:48:14.437Z,5.93
2022-07-25T05:50:46.091Z,5.75
2022-07-25T05:53:16.234Z,5.35
2022-07-25T05:55:49.099Z,5.72
2022-07-25T05:58:19.242Z,5.65
2022-07-25T06:00:51.091Z,5.97
2022-07-25T06:03:21.776Z,5.28
2022-07-25T06:05:52.260Z,5.80
2022-07-25T06:08:22.527Z,5.88
2022-07-25T06:10:55.580Z,5.70
2022-07-25T06:13:25.896Z,5.90
2022-07-25T06:15:58.629Z,5.80
2022-07-25T06:18:30.099Z,5.88
2022-07-25T06:21:00.543Z,5.57
2022-07-25T06:23:30.979Z,6.10
2022-07-25T06:26:03.852Z,6.22
2022-07-25T06:28:34.171Z,5.30
2022-07-25T06:31:04.625Z,5.97
2022-07-25T06:33:34.848Z,5.50
2022-07-25T06:36:05.064Z,5.60
2022-07-25T06:38:35.318Z,6.03
2022-07-25T06:41:08.418Z,5.80
2022-07-25T06:43:38.550Z,5.57
2022-07-25T06:46:09.465Z,5.65
2022-07-25T06:48:40.049Z,6.15
2022-07-25T06:51:10.418Z,5.70
2022-07-25T06:53:40.578Z,5.72
2022-07-25T06:56:17.619Z,5.30
2022-07-25T06:58:48.100Z,5.88
2022-07-25T07:01:18.384Z,5.82
2022-07-25T07:03:48.726Z,6.05
2022-07-25T07:06:19.232Z,5.90
2022-07-25T07:08:49.464Z,5.97
2022-07-25T07:11:22.655Z,6.22
2022-07-25T07:13:52.849Z,6.32
2022-07-25T07:16:23.113Z,6.50
2022-07-25T07:18:53.423Z,6.70
2022-07-25T07:21:23.827Z,6.43
2022-07-25T07:23:54.363Z,5.93
2022-07-25T07:26:27.835Z,6.20
2022-07-25T07:28:58.069Z,6.07
2022-07-25T07:31:28.317Z,5.95
2022-07-25T07:34:00.006Z,6.05
2022-07-25T07:36:30.299Z,6.40
2022-07-25T07:39:00.667Z,6.65
2022-07-25T07:41:33.625Z,6.15
2022-07-25T07:44:03.778Z,6.75
2022-07-25T07:46:34.034Z,6.18
2022-07-25T07:49:04.788Z,6.43
2022-07-25T07:51:35.302Z,6.40
2022-07-25T07:54:17.924Z,6.32
2022-07-25T07:56:50.818Z,6.13
2022-07-25T07:59:21.157Z,6.32
2022-07-25T08:01:51.565Z,7.20
2022-07-25T08:04:21.859Z,6.75
2022-07-25T08:06:52.077Z,6.15
2022-07-25T08:09:25.832Z,5.97
2022-07-25T08:11:58.842Z,6.43
2022-07-25T08:14:29.028Z,6.88
2022-07-25T08:16:59.323Z,6.10
2022-07-25T08:19:29.407Z,6.47
2022-07-25T08:21:59.696Z,7.28
2022-07-25T08:24:29.951Z,6.95
2022-07-25T08:27:02.861Z,6.50
2022-07-25T08:29:33.027Z,6.10
2022-07-25T08:32:03.277Z,6.15
2022-07-25T08:34:33.499Z,7.05
2022-07-25T08:37:03.816Z,6.72
2022-07-25T08:39:34.064Z,6.20
2022-07-25T08:42:10.972Z,6.53
2022-07-25T08:44:46.763Z,6.63
2022-07-25T08:47:18.637Z,6.32
2022-07-25T08:49:49.578Z,6.00
2022-07-25T08:52:21.681Z,6.90
2022-07-25T08:54:53.876Z,6.85
2022-07-25T08:57:26.720Z,6.55
2022-07-25T09:00:00.019Z,6.80
2022-07-25T09:02:31.976Z,6.65
2022-07-25T09:05:02.921Z,6.43
2022-07-25T09:07:36.294Z,6.05
2022-07-25T09:10:18.447Z,6.25
2022-07-25T09:12:59.909Z,6.53
2022-07-25T09:15:32.998Z,6.72
2022-07-25T09:18:06.492Z,6.38
2022-07-25T09:20:47.133Z,6.47
2022-07-25T09:23:29.704Z,6.63
2022-07-25T09:26:07.917Z,6.28
2022-07-25T09:28:48.268Z,6.53
2022-07-25T09:31:20.711Z,6.03
2022-07-25T09:36:57.782Z,6.30
2022-07-25T09:39:43.468Z,6.32
2022-07-25T09:42:26.960Z,5.70
2022-07-25T09:45:13.077Z,6.10
2022-07-25T09:47:56.335Z,5.93
2022-07-25T09:50:29.212Z,6.28
2022-07-25T09:53:03.094Z,6.32
2022-07-25T09:55:33.933Z,6.45
2022-07-25T09:58:04.218Z,6.90
2022-07-25T10:00:37.562Z,6.18
2022-07-25T10:03:32.175Z,6.00
2022-07-25T10:06:22.252Z,6.40
2022-07-25T10:08:54.241Z,6.45
2022-07-25T10:11:27.812Z,6.45
2022-07-25T10:13:59.329Z,6.35
2022-07-25T10:16:32.232Z,7.03
2022-07-25T10:19:02.922Z,6.85
2022-07-25T10:21:33.301Z,7.25
2022-07-25T10:24:07.464Z,7.20
2022-07-25T10:26:41.252Z,7.13
2022-07-25T10:29:14.868Z,7.38
2022-07-25T10:31:51.458Z,7.72
2022-07-25T10:34:33.770Z,8.13
2022-07-25T10:37:15.288Z,7.40
2022-07-25T10:39:48.767Z,7.47
2022-07-25T10:42:23.599Z,7.50
2022-07-25T10:44:58.643Z,6.78
2022-07-25T10:47:32.327Z,7.15
2022-07-25T10:50:19.148Z,7.47
2022-07-25T10:53:07.868Z,7.03
2022-07-25T10:55:39.949Z,7.57
2022-07-25T10:58:18.268Z,6.90
2022-07-25T11:00:51.509Z,7.03
2022-07-25T11:03:25.160Z,7.25
2022-07-25T11:05:56.221Z,7.38
2022-07-25T11:08:35.830Z,6.85
2022-07-25T11:11:06.360Z,7.18
2022-07-25T11:13:41.344Z,7.28
2022-07-25T11:16:13.031Z,7.57
2022-07-25T11:18:45.847Z,7.30
2022-07-25T11:21:16.220Z,7.93
2022-07-25T11:23:53.643Z,7.30
2022-07-25T11:26:23.943Z,6.28
2022-07-25T11:28:54.695Z,6.85
2022-07-25T11:31:27.892Z,7.28
2022-07-25T11:34:00.912Z,6.93
2022-07-25T11:36:33.223Z,6.20
2022-07-25T11:39:03.748Z,6.32
2022-07-25T11:41:34.334Z,7.00
2022-07-25T11:44:04.550Z,6.90
2022-07-25T11:46:47.391Z,6.90
2022-07-25T11:49:20.348Z,6.95
2022-07-25T11:51:50.665Z,5.90
2022-07-25T11:54:20.876Z,6.43
2022-07-25T11:56:51.173Z,5.75
2022-07-25T11:59:21.590Z,6.65
2022-07-25T12:01:52.930Z,6.32
2022-07-25T12:04:25.837Z,6.78
2022-07-25T12:07:07.281Z,6.68
2022-07-25T12:09:37.468Z,6.63
2022-07-25T12:12:08.805Z,6.25
2022-07-25T12:14:46.499Z,5.75
2022-07-25T12:17:16.794Z,5.68
2022-07-25T12:19:50.404Z,5.35
2022-07-25T12:22:21.184Z,5.18
2022-07-25T12:24:51.669Z,5.53
2022-07-25T12:27:21.831Z,4.50
2022-07-25T12:29:51.957Z,5.20
2022-07-25T12:32:22.356Z,5.60
2022-07-25T12:34:55.440Z,4.95
2022-07-25T12:37:25.863Z,5.20
2022-07-25T12:39:56.185Z,5.75
2022-07-25T12:42:27.279Z,5.50
2022-07-25T12:44:57.975Z,5.32
2022-07-25T12:47:30.053Z,5.43
2022-07-25T12:50:02.952Z,5.22
2022-07-25T12:52:33.369Z,5.90
2022-07-25T12:55:03.692Z,5.22
2022-07-25T12:57:34.106Z,5.30
2022-07-25T13:00:04.353Z,5.10
2022-07-25T13:02:34.725Z,5.38
2022-07-25T13:05:09.087Z,5.43
2022-07-25T13:07:39.713Z,5.07
2022-07-25T13:10:12.660Z,4.70
2022-07-25T13:12:43.263Z,4.93
2022-07-25T13:15:14.549Z,4.82
2022-07-25T13:17:44.898Z,4.35
2022-07-25T13:20:18.372Z,4.55
2022-07-25T13:23:07.586Z,4.30
2022-07-25T13:25:37.888Z,3.72
2022-07-25T13:28:11.009Z,3.58
2022-07-25T13:30:41.855Z,3.47
2022-07-25T13:33:12.358Z,3.60
2022-07-25T13:35:45.315Z,4.00
2022-07-25T13:38:15.735Z,3.70
2022-07-25T13:40:46.024Z,3.83
2022-07-25T13:43:17.657Z,3.40
2022-07-25T13:45:48.678Z,2.95
2022-07-25T13:48:29.570Z,3.30
2022-07-25T13:51:03.226Z,3.42
2022-07-25T13:53:33.664Z,3.40
2022-07-25T13:56:04.010Z,3.35
2022-07-25T13:58:35.242Z,3.10
2022-07-25T14:01:05.635Z,2.95
2022-07-25T14:03:37.046Z,3.10
2022-07-25T14:06:13.593Z,3.20
2022-07-25T14:08:44.217Z,2.80
2022-07-25T14:11:14.442Z,2.85
2022-07-25T14:13:45.533Z,3.03
2022-07-25T14:16:19.209Z,2.60
2022-07-25T14:18:49.650Z,2.50
2022-07-25T14:21:22.401Z,2.95
2022-07-25T14:23:53.898Z,2.50
2022-07-25T14:26:25.890Z,2.50
2022-07-25T14:28:56.659Z,2.42
2022-07-25T14:31:27.039Z,2.50
2022-07-25T14:33:58.239Z,2.53
2022-07-25T14:36:31.071Z,2.90
2022-07-25T14:39:01.447Z,2.58
2022-07-25T14:41:31.695Z,2.80
2022-07-25T14:44:02.464Z,3.10
2022-07-25T14:46:32.851Z,3.30
2022-07-25T14:49:03.621Z,2.92
2022-07-25T14:51:36.663Z,2.92
2022-07-25T14:54:07.122Z,2.88
2022-07-25T14:56:37.433Z,2.70
2022-07-25T14:59:08.486Z,2.75
2022-07-25T15:01:41.297Z,2.55
2022-07-25T15:04:11.940Z,2.55
2022-07-25T15:06:44.734Z,2.65
2022-07-25T15:09:18.356Z,2.95
2022-07-25T15:11:48.976Z,2.72
2022-07-25T15:14:19.284Z,2.63
2022-07-25T15:16:49.536Z,2.83
2022-07-25T15:19:20.784Z,3.03
2022-07-25T15:21:53.502Z,3.03
2022-07-25T15:24:28.916Z,3.13
2022-07-25T15:26:59.950Z,3.38
2022-07-25T15:29:30.643Z,2.90
2022-07-25T15:32:01.268Z,2.85
2022-07-25T15:34:32.583Z,3.10
2022-07-25T15:37:05.447Z,2.55
2022-07-25T15:39:35.831Z,2.72
2022-07-25T15:42:06.456Z,2.75
2022-07-25T15:44:36.708Z,2.97
2022-07-25T15:47:09.526Z,2.90
2022-07-25T15:49:40.664Z,2.67
2022-07-25T15:52:13.513Z,2.40
2022-07-25T15:54:43.784Z,2.70
2022-07-25T15:57:14.044Z,2.47
2022-07-25T15:59:44.434Z,2.50
2022-07-25T16:02:16.673Z,2.85
2022-07-25T16:04:48.129Z,2.15
2022-07-25T16:07:46.185Z,2.47
2022-07-25T16:10:19.929Z,2.63
2022-07-25T16:12:51.991Z,2.40
2022-07-25T16:15:26.484Z,2.88
2022-07-25T16:18:02.582Z,2.60
2022-07-25T16:20:36.759Z,2.72
2022-07-25T16:23:13.233Z,2.60
2022-07-25T16:25:46.719Z,2.53
2022-07-25T16:28:19.227Z,2.80
2022-07-25T16:30:51.987Z,2.85
2022-07-25T16:33:23.555Z,2.58
2022-07-25T16:35:54.937Z,2.90
2022-07-25T16:38:29.368Z,2.50
2022-07-25T16:41:01.772Z,2.30
2022-07-25T16:43:33.622Z,2.30
2022-07-25T16:46:05.915Z,2.53
2022-07-25T16:48:39.155Z,2.40
2022-07-25T16:51:11.104Z,2.40
2022-07-25T16:53:44.115Z,2.47
2022-07-25T16:56:14.606Z,2.45
2022-07-25T16:58:46.541Z,2.30
2022-07-25T17:01:17.920Z,3.42
2022-07-25T17:03:48.249Z,2.70
2022-07-25T17:06:19.286Z,2.90
2022-07-25T17:08:52.103Z,11.18
2022-07-25T17:11:22.610Z,3.50
2022-07-25T17:13:52.768Z,4.05
2022-07-25T17:16:23.232Z,4.57
2022-07-25T17:18:53.507Z,3.08
2022-07-25T17:21:24.204Z,2.60
2022-07-25T17:23:57.036Z,2.72
2022-07-25T17:26:27.602Z,2.72
2022-07-25T17:28:59.601Z,2.75
2022-07-25T17:31:29.977Z,2.40
2022-07-25T17:34:00.212Z,2.60
2022-07-25T17:36:30.568Z,2.83
2022-07-25T17:39:03.960Z,2.80
2022-07-25T17:41:34.451Z,2.50
2022-07-25T17:44:09.962Z,2.88
2022-07-25T17:46:42.202Z,2.70
2022-07-25T17:49:12.860Z,2.42
2022-07-25T17:51:43.440Z,2.50
2022-07-25T17:54:16.304Z,2.58
2022-07-25T17:56:47.102Z,2.50
2022-07-25T17:59:17.344Z,2.80
2022-07-25T18:01:47.691Z,2.90
2022-07-25T18:04:17.986Z,2.97
2022-07-25T18:06:48.296Z,2.47
2022-07-25T18:09:24.218Z,2.85
2022-07-25T18:11:55.040Z,2.58
2022-07-25T18:14:25.561Z,2.45
2022-07-25T18:16:55.904Z,2.78
2022-07-25T18:19:26.535Z,2.70
2022-07-25T18:21:56.936Z,2.75
2022-07-25T18:24:30.311Z,2.83
2022-07-25T18:27:02.068Z,2.80
2022-07-25T18:29:32.688Z,3.00
2022-07-25T18:32:05.133Z,2.95
2022-07-25T18:34:36.602Z,2.92
2022-07-25T18:37:08.229Z,3.10
2022-07-25T18:39:42.276Z,2.70
2022-07-25T18:42:12.663Z,3.10
2022-07-25T18:44:42.846Z,2.88
2022-07-25T18:47:13.279Z,2.78
2022-07-25T18:49:44.457Z,3.13
2022-07-25T18:52:14.996Z,2.92
2022-07-25T18:54:47.802Z,3.00
2022-07-25T18:57:18.744Z,2.85
2022-07-25T18:59:49.116Z,2.33
2022-07-25T19:02:19.387Z,2.47
2022-07-25T19:04:49.578Z,2.40
2022-07-25T19:07:20.019Z,2.42
2022-07-25T19:09:53.674Z,2.40
2022-07-25T19:12:26.356Z,2.25
2022-07-25T19:14:56.866Z,2.40
2022-07-25T19:17:27.295Z,2.40
2022-07-25T19:19:57.810Z,2.35
2022-07-25T19:22:28.110Z,1.77
2022-07-25T19:25:01.491Z,2.08
2022-07-25T19:27:31.994Z,2.10
2022-07-25T19:30:02.200Z,2.00
2022-07-25T19:32:32.487Z,1.90
2022-07-25T19:35:02.729Z,1.88
2022-07-25T19:40:30.401Z,2.00
2022-07-25T19:43:01.367Z,2.25
2022-07-25T19:45:32.725Z,2.00
2022-07-25T19:48:03.255Z,2.03
2022-07-25T19:50:33.549Z,2.15
2022-07-25T19:53:04.432Z,2.05
2022-07-25T19:55:37.451Z,2.08
2022-07-25T19:58:08.482Z,1.88
2022-07-25T20:00:39.832Z,1.75
2022-07-25T20:03:10.159Z,1.70
2022-07-25T20:05:42.532Z,1.88
2022-07-25T20:08:12.649Z,1.88
2022-07-25T20:10:47.421Z,1.67
2022-07-25T20:13:18.022Z,1.85
2022-07-25T20:15:48.362Z,1.65
2022-07-25T20:18:19.759Z,2.00
2022-07-25T20:20:52.538Z,1.63
2022-07-25T20:23:22.735Z,2.15
2022-07-25T20:25:55.747Z,1.92
2022-07-25T20:28:26.560Z,1.98
2022-07-25T20:30:57.513Z,1.70
2022-07-25T20:33:28.143Z,1.48
2022-07-25T20:35:59.342Z,1.63
2022-07-25T20:38:32.306Z,1.77
2022-07-25T20:41:05.346Z,2.13
2022-07-25T20:43:37.946Z,1.85
2022-07-25T20:46:09.547Z,1.88
2022-07-25T20:48:40.345Z,2.05
2022-07-25T20:51:10.886Z,1.73
2022-07-25T20:53:41.917Z,1.50
2022-07-25T20:56:14.774Z,1.52
2022-07-25T20:58:45.470Z,1.63
2022-07-25T21:01:16.007Z,2.17
2022-07-25T21:03:46.383Z,1.83
2022-07-25T21:06:16.740Z,1.70
2022-07-25T21:08:46.917Z,1.40
2022-07-25T21:11:19.836Z,1.85
2022-07-25T21:13:50.104Z,1.60
2022-07-25T21:16:20.447Z,1.50
2022-07-25T21:18:50.690Z,1.83
2022-07-25T21:21:20.983Z,1.35
2022-07-25T21:23:51.221Z,3.25
2022-07-25T21:26:24.079Z,2.40
2022-07-25T21:28:54.411Z,1.48
2022-07-25T21:31:24.874Z,1.30
2022-07-25T21:33:55.134Z,1.15
2022-07-25T21:36:25.468Z,1.40
2022-07-25T21:38:55.702Z,1.50
2022-07-25T21:41:28.428Z,1.40
2022-07-25T21:43:59.202Z,1.35
2022-07-25T21:46:29.989Z,1.77
2022-07-25T21:49:13.491Z,1.45
2022-07-25T21:51:44.724Z,1.52
2022-07-25T21:54:33.368Z,1.10
2022-07-25T21:57:06.610Z,1.10
2022-07-25T21:59:43.756Z,1.65
2022-07-25T22:02:14.767Z,1.40
2022-07-25T22:04:45.210Z,1.50
2022-07-25T22:07:15.418Z,1.40
2022-07-25T22:09:45.807Z,1.48
2022-07-25T22:12:18.746Z,1.30
2022-07-25T22:14:49.072Z,1.48
2022-07-25T22:17:19.233Z,1.30
2022-07-25T22:19:49.615Z,1.00
2022-07-25T22:22:20.093Z,1.52
2022-07-25T22:24:50.357Z,1.38
2022-07-25T22:27:23.254Z,1.27
2022-07-25T22:29:53.527Z,1.15
2022-07-25T22:32:23.730Z,1.05
2022-07-25T22:34:54.099Z,1.35
2022-07-25T22:37:24.317Z,1.30
2022-07-25T22:40:00.586Z,1.30
2022-07-25T22:42:33.880Z,1.40
2022-07-25T22:45:04.214Z,1.30
2022-07-25T22:47:34.655Z,1.63
2022-07-25T22:50:05.475Z,1.33
2022-07-25T22:52:36.079Z,1.33
2022-07-25T22:55:07.217Z,1.20
2022-07-25T22:57:40.519Z,1.50
2022-07-25T23:00:14.078Z,1.67
2022-07-25T23:02:44.380Z,1.20
2022-07-25T23:05:14.772Z,1.40
2022-07-25T23:07:45.251Z,1.00
2022-07-25T23:10:15.612Z,1.10
2022-07-25T23:12:48.462Z,1.20
2022-07-25T23:15:18.862Z,1.20
2022-07-25T23:17:49.075Z,1.30
2022-07-25T23:20:19.444Z,1.10
2022-07-25T23:22:49.681Z,1.58
2022-07-25T23:25:22.636Z,1.10
2022-07-25T23:27:55.369Z,1.20
2022-07-25T23:30:26.008Z,1.38
2022-07-25T23:32:56.183Z,1.27
2022-07-25T23:35:26.709Z,1.23
2022-07-25T23:37:56.943Z,1.20
2022-07-25T23:40:27.219Z,1.25
2022-07-25T23:43:00.145Z,1.13
2022-07-25T23:45:30.721Z,1.17
2022-07-25T23:48:01.020Z,1.00
2022-07-25T23:50:31.344Z,1.27
2022-07-25T23:53:01.706Z,1.02
2022-07-25T23:55:32.323Z,1.00
2022-07-25T23:58:05.203Z,1.10
